Time;durP1;ratioP1;P1;durP2;ratioP2;P2;SDS_P1;SDS_P2;PMS_P1;PMS_P2;Temp;Humidity;BMP_temperature;BMP_pressure;BME280_temperature;BME280_humidity;BME280_pressure;Samples;Min_cycle;Max_cycle;Signal;HPM_P1;HPM_P2
2021/03/25 00:00:16;;;;;;;;;;;2.30;91.30;;;;;;4996437;28;94163;-66
2021/03/25 00:02:42;;;;;;;;;;;2.30;91.30;;;;;;4992938;28;92174;-66
2021/03/25 00:05:10;;;;;;;;;;;2.30;91.40;;;;;;4996904;28;92203;-67
2021/03/25 00:07:36;;;;;;;;;;;2.20;91.30;;;;;;4995918;28;92215;-67
2021/03/25 00:10:05;;;;;;;;;;;2.20;91.40;;;;;;4996233;28;92202;-67
2021/03/25 00:12:30;;;;;;;;;;;2.20;91.30;;;;;;4992925;28;94992;-66
2021/03/25 00:14:56;;;;;;;;;;;2.20;91.30;;;;;;4993933;28;92183;-66
2021/03/25 00:17:21;;;;;;;;;;;2.20;91.30;;;;;;4993610;28;92464;-67
2021/03/25 00:19:47;;;;;;;;;;;2.20;91.30;;;;;;4991776;28;93223;-67
2021/03/25 00:22:13;;;;;;;;;;;2.20;91.30;;;;;;4997327;28;92856;-66
2021/03/25 00:24:38;;;;;;;;;;;2.20;91.30;;;;;;4996245;28;93238;-66
2021/03/25 00:27:05;;;;;;;;;;;2.20;91.20;;;;;;4998697;28;93190;-66
2021/03/25 00:29:30;;;;;;;;;;;2.20;91.20;;;;;;4994397;28;92587;-67
2021/03/25 00:31:56;;;;;;;;;;;2.20;91.20;;;;;;4995358;28;92785;-66
2021/03/25 00:34:21;;;;;;;;;;;2.20;91.20;;;;;;4996575;28;92252;-66
2021/03/25 00:36:47;;;;;;;;;;;2.20;91.10;;;;;;4995873;28;93368;-66
2021/03/25 00:39:13;;;;;;;;;;;2.10;91.10;;;;;;4994617;28;93227;-66
2021/03/25 00:41:39;;;;;;;;;;;2.10;91.20;;;;;;4994714;28;91465;-66
2021/03/25 00:44:08;;;;;;;;;;;2.10;91.20;;;;;;4997393;28;92335;-66
2021/03/25 00:46:34;;;;;;;;;;;2.10;91.30;;;;;;4996747;28;94880;-66
2021/03/25 00:49:01;;;;;;;;;;;2.10;91.30;;;;;;5002420;28;93174;-66
2021/03/25 00:51:27;;;;;;;;;;;2.10;91.20;;;;;;4997946;28;93351;-66
2021/03/25 00:53:52;;;;;;;;;;;2.00;91.20;;;;;;4998371;28;92299;-67
2021/03/25 00:56:18;;;;;;;;;;;2.10;91.30;;;;;;4998004;28;92539;-66
2021/03/25 00:58:43;;;;;;;;;;;2.00;91.20;;;;;;4997934;28;93350;-66
2021/03/25 01:01:09;;;;;;;;;;;2.00;91.20;;;;;;4999159;28;92177;-66
2021/03/25 01:03:35;;;;;;;;;;;2.00;91.20;;;;;;4998460;28;92306;-66
2021/03/25 01:06:00;;;;;;;;;;;2.00;91.20;;;;;;4999296;28;92452;-66
2021/03/25 01:08:29;;;;;;;;;;;2.00;91.20;;;;;;5000245;28;93787;-66
2021/03/25 01:11:00;;;;;;;;;;;2.00;91.30;;;;;;4997735;28;92222;-66
2021/03/25 01:13:26;;;;;;;;;;;2.00;91.20;;;;;;4996654;28;94765;-66
2021/03/25 01:15:52;;;;;;;;;;;1.90;91.20;;;;;;4995981;28;92686;-66
2021/03/25 01:18:17;;;;;;;;;;;1.90;91.20;;;;;;4995494;28;93183;-66
2021/03/25 01:20:43;;;;;;;;;;;1.90;91.20;;;;;;4996817;28;92195;-66
2021/03/25 01:23:09;;;;;;;;;;;1.90;91.20;;;;;;4996017;28;92234;-66
2021/03/25 01:25:35;;;;;;;;;;;1.90;91.20;;;;;;4994555;28;93395;-67
2021/03/25 01:28:03;;;;;;;;;;;1.90;91.20;;;;;;5000318;28;92193;-66
2021/03/25 01:30:29;;;;;;;;;;;1.90;91.20;;;;;;5000268;28;92916;-67
2021/03/25 01:32:55;;;;;;;;;;;1.80;91.20;;;;;;4995410;28;93857;-67
2021/03/25 01:35:21;;;;;;;;;;;1.80;91.20;;;;;;4999838;28;92206;-66
2021/03/25 01:37:48;;;;;;;;;;;1.80;91.10;;;;;;4997809;28;94232;-66
2021/03/25 01:40:16;;;;;;;;;;;1.80;91.10;;;;;;4997136;28;92218;-66
2021/03/25 01:42:43;;;;;;;;;;;1.80;91.20;;;;;;4995074;28;94091;-66
2021/03/25 01:45:38;;;;;;;;;;;1.80;91.10;;;;;;4998388;28;93254;-66
2021/03/25 01:48:04;;;;;;;;;;;1.80;91.10;;;;;;4985141;28;92194;-66
2021/03/25 01:50:29;;;;;;;;;;;1.80;91.10;;;;;;4997833;28;92241;-66
2021/03/25 01:53:01;;;;;;;;;;;1.80;91.10;;;;;;4999834;28;92640;-66
2021/03/25 01:55:33;;;;;;;;;;;1.70;91.10;;;;;;4994612;28;92554;-66
2021/03/25 01:57:58;;;;;;;;;;;1.70;91.10;;;;;;4995131;28;93286;-66
2021/03/25 02:00:42;;;;;;;;;;;1.70;91.10;;;;;;4997869;28;93516;-66
2021/03/25 02:03:08;;;;;;;;;;;1.70;91.10;;;;;;4995366;28;93235;-67
2021/03/25 02:05:48;;;;;;;;;;;1.70;91.10;;;;;;4994901;28;92985;-66
2021/03/25 02:08:22;;;;;;;;;;;1.70;91.10;;;;;;4996500;28;92171;-66
2021/03/25 02:10:57;;;;;;;;;;;1.60;91.10;;;;;;4998544;28;93379;-66
2021/03/25 02:13:32;;;;;;;;;;;1.70;91.10;;;;;;4994685;28;93296;-66
2021/03/25 02:16:03;;;;;;;;;;;1.60;91.10;;;;;;4999365;28;92249;-67
2021/03/25 02:18:32;;;;;;;;;;;1.60;91.30;;;;;;4994542;28;93688;-66
2021/03/25 02:21:00;;;;;;;;;;;1.60;91.00;;;;;;4999270;28;92434;-66
2021/03/25 02:23:26;;;;;;;;;;;1.60;91.10;;;;;;4996900;28;92234;-66
2021/03/25 02:26:11;;;;;;;;;;;1.60;91.10;;;;;;4997079;28;93319;-67
2021/03/25 02:28:56;;;;;;;;;;;1.50;91.10;;;;;;4995574;28;93120;-66
2021/03/25 02:31:27;;;;;;;;;;;1.60;91.20;;;;;;4996813;28;93851;-66
2021/03/25 02:33:55;;;;;;;;;;;1.50;91.20;;;;;;4997763;28;93095;-66
2021/03/25 02:36:24;;;;;;;;;;;1.50;91.10;;;;;;4995818;28;92160;-66
2021/03/25 02:38:53;;;;;;;;;;;1.50;91.10;;;;;;5001480;28;92521;-66
2021/03/25 02:41:20;;;;;;;;;;;1.50;91.10;;;;;;4994737;28;92177;-66
2021/03/25 02:43:52;;;;;;;;;;;1.50;91.10;;;;;;4998800;28;92357;-66
2021/03/25 02:46:26;;;;;;;;;;;1.50;91.10;;;;;;4997173;28;92536;-66
2021/03/25 02:48:53;;;;;;;;;;;1.50;91.40;;;;;;4995453;28;92597;-66
2021/03/25 02:51:24;;;;;;;;;;;1.40;91.10;;;;;;4997962;28;92316;-66
2021/03/25 02:53:50;;;;;;;;;;;1.40;91.10;;;;;;4996804;28;94150;-66
2021/03/25 02:56:23;;;;;;;;;;;1.40;91.00;;;;;;4998015;28;92187;-66
2021/03/25 02:59:01;;;;;;;;;;;1.40;91.10;;;;;;4994805;28;92570;-66
2021/03/25 03:01:26;;;;;;;;;;;1.40;91.10;;;;;;4996441;28;93158;-66
2021/03/25 03:03:58;;;;;;;;;;;1.40;91.00;;;;;;4994864;28;92528;-66
2021/03/25 03:06:37;;;;;;;;;;;1.40;91.10;;;;;;4996783;28;93406;-66
2021/03/25 03:09:05;;;;;;;;;;;1.40;91.10;;;;;;4993280;28;92273;-66
2021/03/25 03:11:33;;;;;;;;;;;1.40;91.10;;;;;;4997480;28;92387;-66
2021/03/25 03:14:06;;;;;;;;;;;1.30;91.00;;;;;;4994304;28;93718;-66
2021/03/25 03:16:40;;;;;;;;;;;1.30;91.00;;;;;;4997243;28;93251;-66
2021/03/25 03:19:09;;;;;;;;;;;1.30;91.10;;;;;;4992564;28;93190;-66
2021/03/25 03:21:39;;;;;;;;;;;1.30;91.00;;;;;;4995005;28;93257;-66
2021/03/25 03:24:05;;;;;;;;;;;1.30;91.00;;;;;;4998541;28;92191;-66
2021/03/25 03:26:32;;;;;;;;;;;1.30;91.00;;;;;;4993199;28;93144;-66
2021/03/25 03:29:04;;;;;;;;;;;1.30;91.00;;;;;;4997916;28;92213;-66
2021/03/25 03:31:34;;;;;;;;;;;1.30;91.10;;;;;;4997289;28;92210;-66
2021/03/25 03:34:02;;;;;;;;;;;1.20;91.00;;;;;;4996502;28;93733;-66
2021/03/25 03:36:28;;;;;;;;;;;1.20;91.00;;;;;;4994518;28;91514;-66
2021/03/25 03:38:56;;;;;;;;;;;1.20;91.00;;;;;;4993524;28;92348;-66
2021/03/25 03:41:24;;;;;;;;;;;1.20;91.00;;;;;;4997497;28;93784;-66
2021/03/25 03:43:49;;;;;;;;;;;1.20;91.10;;;;;;4998759;28;93125;-66
2021/03/25 03:46:26;;;;;;;;;;;1.20;91.00;;;;;;4994727;28;92645;-66
2021/03/25 03:49:05;;;;;;;;;;;1.20;91.10;;;;;;4993598;28;92175;-66
2021/03/25 03:51:32;;;;;;;;;;;1.20;91.10;;;;;;4994607;28;92431;-66
2021/03/25 03:54:00;;;;;;;;;;;1.20;91.10;;;;;;4993236;28;93292;-67
2021/03/25 03:56:35;;;;;;;;;;;1.20;91.00;;;;;;4997579;28;92197;-66
2021/03/25 03:59:04;;;;;;;;;;;1.20;91.00;;;;;;4997621;28;92387;-66
2021/03/25 04:01:34;;;;;;;;;;;1.10;91.00;;;;;;4993595;28;92134;-66
2021/03/25 04:04:02;;;;;;;;;;;1.10;91.00;;;;;;4995551;28;92182;-66
2021/03/25 04:06:33;;;;;;;;;;;1.10;91.10;;;;;;4996413;28;92170;-66
2021/03/25 04:08:59;;;;;;;;;;;1.10;91.10;;;;;;4992110;28;93145;-66
2021/03/25 04:11:28;;;;;;;;;;;1.10;91.10;;;;;;4993435;28;93308;-66
2021/03/25 04:14:16;;;;;;;;;;;1.10;91.00;;;;;;4996072;28;92299;-66
2021/03/25 04:16:43;;;;;;;;;;;1.10;91.10;;;;;;4985183;28;92178;-66
2021/03/25 04:19:13;;;;;;;;;;;1.00;91.10;;;;;;4993554;28;93879;-66
2021/03/25 04:21:45;;;;;;;;;;;1.00;91.10;;;;;;4992367;28;94104;-66
2021/03/25 04:24:17;;;;;;;;;;;1.00;91.00;;;;;;4996456;28;92240;-66
2021/03/25 04:26:45;;;;;;;;;;;1.00;91.00;;;;;;4994551;28;92548;-66
2021/03/25 04:29:32;;;;;;;;;;;1.00;91.00;;;;;;4998569;28;93149;-66
2021/03/25 04:31:58;;;;;;;;;;;1.00;91.00;;;;;;4994746;28;92459;-66
2021/03/25 04:34:24;;;;;;;;;;;1.00;91.00;;;;;;4994173;28;93634;-66
2021/03/25 04:36:50;;;;;;;;;;;1.00;91.00;;;;;;4995837;28;92347;-67
2021/03/25 04:39:17;;;;;;;;;;;0.90;91.00;;;;;;4995524;28;92203;-66
2021/03/25 04:41:44;;;;;;;;;;;0.90;91.00;;;;;;4993221;28;92530;-66
2021/03/25 04:44:27;;;;;;;;;;;0.90;91.00;;;;;;4993950;28;92203;-66
2021/03/25 04:46:59;;;;;;;;;;;0.90;91.00;;;;;;4994364;28;92370;-66
2021/03/25 04:49:48;;;;;;;;;;;0.90;91.00;;;;;;4995103;28;93213;-66
2021/03/25 04:52:19;;;;;;;;;;;0.90;91.00;;;;;;4989924;28;91479;-66
2021/03/25 04:54:45;;;;;;;;;;;0.90;91.00;;;;;;4993662;28;93060;-66
2021/03/25 04:57:31;;;;;;;;;;;0.90;91.00;;;;;;4993133;28;92195;-66
2021/03/25 04:59:57;;;;;;;;;;;0.90;91.00;;;;;;4991260;28;93116;-66
2021/03/25 05:02:23;;;;;;;;;;;0.90;91.00;;;;;;4992095;28;93173;-66
2021/03/25 05:04:51;;;;;;;;;;;0.80;91.00;;;;;;4993346;28;92200;-66
2021/03/25 05:07:27;;;;;;;;;;;0.80;91.00;;;;;;4992522;28;92807;-66
2021/03/25 05:09:54;;;;;;;;;;;0.80;91.00;;;;;;4992050;28;93291;-66
2021/03/25 05:12:19;;;;;;;;;;;0.80;91.00;;;;;;4994245;28;93258;-66
2021/03/25 05:14:47;;;;;;;;;;;0.80;90.90;;;;;;4999476;28;92985;-66
2021/03/25 05:17:35;;;;;;;;;;;0.80;90.90;;;;;;4995896;28;91538;-66
2021/03/25 05:20:11;;;;;;;;;;;0.80;90.90;;;;;;4993865;28;92190;-66
2021/03/25 05:22:45;;;;;;;;;;;0.80;90.90;;;;;;4993463;28;92665;-66
2021/03/25 05:25:28;;;;;;;;;;;0.80;91.00;;;;;;4993488;28;93162;-66
2021/03/25 05:27:56;;;;;;;;;;;0.80;91.00;;;;;;4992902;28;93339;-66
2021/03/25 05:30:23;;;;;;;;;;;0.70;91.00;;;;;;4997076;28;92517;-66
2021/03/25 05:32:51;;;;;;;;;;;0.70;91.00;;;;;;4995327;28;92193;-66
2021/03/25 05:35:19;;;;;;;;;;;0.70;91.00;;;;;;4998895;28;92903;-66
2021/03/25 05:37:46;;;;;;;;;;;0.70;91.00;;;;;;4998077;28;92696;-66
2021/03/25 05:40:32;;;;;;;;;;;0.70;91.10;;;;;;4999489;28;92390;-66
2021/03/25 05:43:07;;;;;;;;;;;0.70;91.00;;;;;;4997902;28;93952;-66
2021/03/25 05:45:43;;;;;;;;;;;0.70;91.00;;;;;;4998279;28;92210;-66
2021/03/25 05:48:15;;;;;;;;;;;0.70;91.00;;;;;;4997100;28;92673;-66
2021/03/25 05:50:59;;;;;;;;;;;0.70;91.00;;;;;;4995402;28;93623;-66
2021/03/25 05:53:27;;;;;;;;;;;0.70;91.00;;;;;;4997512;28;92324;-66
2021/03/25 05:55:56;;;;;;;;;;;0.70;91.00;;;;;;4999760;28;92343;-66
2021/03/25 05:58:36;;;;;;;;;;;0.70;91.00;;;;;;4997389;28;92645;-66
2021/03/25 06:01:28;;;;;;;;;;;0.70;91.00;;;;;;4997153;28;92247;-66
2021/03/25 06:03:53;;;;;;;;;;;0.70;91.00;;;;;;4970902;28;93338;-66
2021/03/25 06:06:27;;;;;;;;;;;0.70;90.90;;;;;;4994631;28;92258;-66
2021/03/25 06:09:15;;;;;;;;;;;0.70;91.00;;;;;;4996318;28;91913;-66
2021/03/25 06:11:48;;;;;;;;;;;0.60;90.90;;;;;;4998339;28;93414;-66
2021/03/25 06:14:20;;;;;;;;;;;0.70;90.90;;;;;;4994670;28;92653;-66
2021/03/25 06:16:57;;;;;;;;;;;0.60;90.90;;;;;;4997258;28;94826;-66
2021/03/25 06:19:31;;;;;;;;;;;0.70;90.90;;;;;;4997968;28;93764;-66
2021/03/25 06:22:03;;;;;;;;;;;0.60;90.90;;;;;;5002167;28;92822;-66
2021/03/25 06:24:43;;;;;;;;;;;0.60;91.00;;;;;;4997239;28;93098;-66
2021/03/25 06:27:27;;;;;;;;;;;0.60;91.00;;;;;;4998147;28;92186;-66
2021/03/25 06:29:54;;;;;;;;;;;0.60;91.00;;;;;;4998165;28;93902;-66
2021/03/25 06:32:26;;;;;;;;;;;0.70;91.00;;;;;;4996022;28;92921;-66
2021/03/25 06:34:55;;;;;;;;;;;0.60;91.00;;;;;;4994062;28;92047;-66
2021/03/25 06:37:23;;;;;;;;;;;0.60;91.00;;;;;;4996258;28;92283;-66
2021/03/25 06:39:54;;;;;;;;;;;0.70;91.00;;;;;;4993667;28;92950;-66
2021/03/25 06:42:22;;;;;;;;;;;0.60;91.00;;;;;;4993099;28;93147;-66
2021/03/25 06:45:08;;;;;;;;;;;0.60;91.00;;;;;;5001246;28;93343;-66
2021/03/25 06:47:41;;;;;;;;;;;0.60;91.00;;;;;;4985097;28;93668;-66
2021/03/25 06:50:07;;;;;;;;;;;0.60;91.00;;;;;;4996296;28;92227;-66
2021/03/25 06:52:35;;;;;;;;;;;0.70;91.10;;;;;;4995940;28;94715;-66
2021/03/25 06:55:12;;;;;;;;;;;0.60;91.00;;;;;;4994938;28;92217;-66
2021/03/25 06:57:40;;;;;;;;;;;0.60;91.10;;;;;;4994755;28;93766;-66
2021/03/25 07:00:06;;;;;;;;;;;0.70;91.10;;;;;;4996571;28;92497;-66
2021/03/25 07:02:33;;;;;;;;;;;0.70;91.00;;;;;;4996289;28;92268;-66
2021/03/25 07:05:00;;;;;;;;;;;0.60;91.10;;;;;;4993671;28;92967;-66
2021/03/25 07:07:30;;;;;;;;;;;0.70;91.10;;;;;;5000161;28;93765;-66
2021/03/25 07:09:56;;;;;;;;;;;0.70;91.10;;;;;;4997953;28;93565;-66
2021/03/25 07:12:30;;;;;;;;;;;0.70;91.10;;;;;;4995375;28;93218;-66
2021/03/25 07:14:56;;;;;;;;;;;0.70;91.20;;;;;;4998333;28;93023;-66
2021/03/25 07:17:32;;;;;;;;;;;0.70;91.20;;;;;;4995439;28;93689;-66
2021/03/25 07:19:58;;;;;;;;;;;0.70;91.20;;;;;;4996130;28;93231;-66
2021/03/25 07:22:28;;;;;;;;;;;0.70;91.20;;;;;;4998290;28;92190;-66
2021/03/25 07:25:13;;;;;;;;;;;0.70;91.20;;;;;;4997320;28;93514;-66
2021/03/25 07:27:39;;;;;;;;;;;0.70;91.20;;;;;;4997831;28;93441;-66
2021/03/25 07:30:06;;;;;;;;;;;0.70;91.40;;;;;;5000476;28;92153;-66
2021/03/25 07:32:42;;;;;;;;;;;0.70;91.20;;;;;;4992874;28;94797;-66
2021/03/25 07:35:12;;;;;;;;;;;0.70;91.20;;;;;;4994698;28;92253;-66
2021/03/25 07:37:39;;;;;;;;;;;0.70;91.20;;;;;;4994565;28;92967;-66
2021/03/25 07:40:20;;;;;;;;;;;0.70;91.30;;;;;;4993823;28;93196;-66
2021/03/25 07:42:45;;;;;;;;;;;0.70;91.30;;;;;;4995393;28;92211;-66
2021/03/25 07:45:20;;;;;;;;;;;0.70;91.20;;;;;;4996139;28;92266;-66
2021/03/25 07:47:46;;;;;;;;;;;0.70;91.20;;;;;;4997399;28;93640;-66
2021/03/25 07:50:27;;;;;;;;;;;0.70;91.30;;;;;;4997167;28;91499;-66
2021/03/25 07:52:53;;;;;;;;;;;0.70;91.30;;;;;;4999053;28;93172;-66
2021/03/25 07:55:19;;;;;;;;;;;0.70;91.20;;;;;;4997471;28;92929;-66
2021/03/25 07:57:45;;;;;;;;;;;0.70;91.30;;;;;;4993867;28;94794;-66
2021/03/25 08:00:19;;;;;;;;;;;0.70;91.30;;;;;;4995175;28;93756;-66
2021/03/25 08:02:45;;;;;;;;;;;0.80;91.30;;;;;;4993535;28;92198;-66
2021/03/25 08:05:13;;;;;;;;;;;0.70;91.30;;;;;;4994196;28;92367;-66
2021/03/25 08:07:40;;;;;;;;;;;0.80;91.30;;;;;;4996777;28;93100;-66
2021/03/25 08:10:07;;;;;;;;;;;0.80;91.40;;;;;;4996961;28;92207;-67
2021/03/25 08:12:34;;;;;;;;;;;0.80;91.30;;;;;;4999305;28;92393;-66
2021/03/25 08:15:05;;;;;;;;;;;0.80;91.30;;;;;;4996185;28;91432;-66
2021/03/25 08:17:36;;;;;;;;;;;0.80;91.30;;;;;;4996713;28;93644;-66
2021/03/25 08:20:16;;;;;;;;;;;0.80;91.30;;;;;;4996502;28;92692;-66
2021/03/25 08:22:44;;;;;;;;;;;0.90;91.30;;;;;;4996533;28;93139;-66
2021/03/25 08:25:31;;;;;;;;;;;0.90;91.40;;;;;;4992308;28;92799;-66
2021/03/25 08:28:16;;;;;;;;;;;0.90;91.40;;;;;;4985778;28;94361;-66
2021/03/25 08:30:41;;;;;;;;;;;0.90;91.40;;;;;;4994033;28;92189;-66
2021/03/25 08:33:25;;;;;;;;;;;0.90;91.40;;;;;;4995272;28;92242;-66
2021/03/25 08:35:57;;;;;;;;;;;0.90;91.40;;;;;;4997296;28;92730;-66
2021/03/25 08:38:38;;;;;;;;;;;0.90;91.40;;;;;;4993794;28;93921;-66
2021/03/25 08:41:10;;;;;;;;;;;0.90;91.40;;;;;;4992680;28;91491;-66
2021/03/25 08:43:38;;;;;;;;;;;0.90;91.40;;;;;;4996426;28;92948;-66
2021/03/25 08:46:08;;;;;;;;;;;1.00;91.40;;;;;;4993556;28;92504;-66
2021/03/25 08:48:34;;;;;;;;;;;0.90;91.40;;;;;;4992261;28;93886;-66
2021/03/25 08:50:59;;;;;;;;;;;0.90;91.50;;;;;;4992946;28;92191;-66
2021/03/25 08:53:25;;;;;;;;;;;0.90;91.50;;;;;;4993731;28;92723;-66
2021/03/25 08:55:52;;;;;;;;;;;1.00;91.50;;;;;;4993627;28;92202;-66
2021/03/25 08:58:20;;;;;;;;;;;0.90;91.50;;;;;;4999151;28;93923;-66
2021/03/25 09:00:48;;;;;;;;;;;1.00;91.50;;;;;;4993141;28;92196;-66
2021/03/25 09:03:17;;;;;;;;;;;0.90;91.50;;;;;;4997080;28;92214;-66
2021/03/25 09:06:03;;;;;;;;;;;1.00;91.70;;;;;;4996180;28;93556;-65
2021/03/25 09:08:29;;;;;;;;;;;1.00;91.50;;;;;;4996364;28;93851;-65
2021/03/25 09:10:57;;;;;;;;;;;1.00;91.50;;;;;;4999587;28;92210;-66
2021/03/25 09:13:24;;;;;;;;;;;1.00;91.50;;;;;;4995998;28;93382;-65
2021/03/25 09:15:51;;;;;;;;;;;1.00;91.50;;;;;;4995332;28;94624;-65
2021/03/25 09:18:18;;;;;;;;;;;1.10;91.50;;;;;;4995674;28;92359;-66
2021/03/25 09:20:46;;;;;;;;;;;1.10;91.60;;;;;;5002364;28;93732;-66
2021/03/25 09:23:30;;;;;;;;;;;1.10;91.60;;;;;;4997120;28;92209;-66
2021/03/25 09:26:00;;;;;;;;;;;1.10;91.60;;;;;;4997804;28;92232;-66
2021/03/25 09:29:06;;;;;;;;;;;1.10;91.50;;;;;;4998984;28;93407;-66
2021/03/25 09:31:33;;;;;;;;;;;1.10;91.50;;;;;;4969059;28;91923;-66
2021/03/25 09:34:19;;;;;;;;;;;1.20;91.60;;;;;;5000101;28;92199;-66
2021/03/25 09:36:45;;;;;;;;;;;1.20;91.60;;;;;;4988132;28;93405;-66
2021/03/25 09:39:16;;;;;;;;;;;1.20;91.60;;;;;;4998834;28;93214;-65
2021/03/25 09:41:41;;;;;;;;;;;1.20;91.60;;;;;;4999367;28;93469;-66
2021/03/25 09:44:20;;;;;;;;;;;1.20;91.50;;;;;;5001097;28;93032;-65
2021/03/25 09:46:54;;;;;;;;;;;1.20;91.60;;;;;;4996683;28;94126;-66
2021/03/25 09:49:29;;;;;;;;;;;1.20;91.50;;;;;;4996095;28;92754;-66
2021/03/25 09:52:03;;;;;;;;;;;1.20;91.60;;;;;;4999455;28;92199;-66
2021/03/25 09:54:29;;;;;;;;;;;1.20;91.60;;;;;;4995115;28;92392;-65
2021/03/25 09:57:15;;;;;;;;;;;1.30;91.50;;;;;;4996141;28;91958;-66
2021/03/25 09:59:48;;;;;;;;;;;1.30;91.50;;;;;;4995832;28;92219;-65
2021/03/25 10:02:33;;;;;;;;;;;1.30;91.60;;;;;;4997540;28;92457;-65
2021/03/25 10:05:28;;;;;;;;;;;1.30;91.50;;;;;;4993511;28;94705;-65
2021/03/25 10:07:55;;;;;;;;;;;1.30;91.60;;;;;;4997678;28;92231;-66
2021/03/25 10:10:23;;;;;;;;;;;1.40;91.50;;;;;;4998413;28;92624;-66
2021/03/25 10:12:52;;;;;;;;;;;1.40;91.60;;;;;;4994658;28;93372;-66
2021/03/25 10:15:42;;;;;;;;;;;1.40;91.50;;;;;;4995077;28;92358;-66
2021/03/25 10:18:28;;;;;;;;;;;1.40;91.50;;;;;;4995520;28;92727;-66
2021/03/25 10:20:53;;;;;;;;;;;1.40;91.40;;;;;;4984116;28;93578;-66
2021/03/25 10:23:38;;;;;;;;;;;1.40;91.50;;;;;;4995868;28;91853;-65
2021/03/25 10:26:03;;;;;;;;;;;1.40;91.50;;;;;;4997800;28;93142;-66
2021/03/25 10:28:31;;;;;;;;;;;1.50;91.40;;;;;;5001426;28;93010;-66
2021/03/25 10:30:58;;;;;;;;;;;1.50;91.40;;;;;;4996466;28;93589;-66
2021/03/25 10:33:24;;;;;;;;;;;1.50;91.40;;;;;;4996863;28;92244;-66
2021/03/25 10:35:55;;;;;;;;;;;1.50;91.40;;;;;;4996974;28;92167;-66
2021/03/25 10:38:27;;;;;;;;;;;1.50;91.40;;;;;;4996990;28;92212;-66
2021/03/25 10:41:00;;;;;;;;;;;1.50;91.40;;;;;;4998077;28;92199;-66
2021/03/25 10:43:28;;;;;;;;;;;1.50;91.50;;;;;;4995836;28;92444;-66
2021/03/25 10:45:54;;;;;;;;;;;1.60;91.50;;;;;;4995233;28;93905;-66
2021/03/25 10:48:30;;;;;;;;;;;1.60;91.50;;;;;;4996529;28;91989;-66
2021/03/25 10:50:58;;;;;;;;;;;1.60;91.40;;;;;;4997490;28;92232;-66
2021/03/25 10:53:28;;;;;;;;;;;1.70;91.50;;;;;;4996903;28;93825;-66
2021/03/25 10:56:02;;;;;;;;;;;1.70;91.40;;;;;;4993742;28;93251;-66
2021/03/25 10:58:30;;;;;;;;;;;1.70;91.40;;;;;;4997676;28;92701;-66
2021/03/25 11:01:02;;;;;;;;;;;1.70;91.40;;;;;;4993629;28;92211;-66
2021/03/25 11:03:27;;;;;;;;;;;1.70;91.40;;;;;;4998645;28;92164;-66
2021/03/25 11:05:54;;;;;;;;;;;1.80;91.40;;;;;;4997255;28;93111;-66
2021/03/25 11:08:30;;;;;;;;;;;1.80;91.40;;;;;;4995077;28;92175;-66
2021/03/25 11:10:56;;;;;;;;;;;1.80;91.40;;;;;;4994437;28;92238;-66
2021/03/25 11:13:24;;;;;;;;;;;1.80;91.40;;;;;;4997449;28;91980;-66
2021/03/25 11:15:58;;;;;;;;;;;1.90;91.40;;;;;;4996723;28;93082;-66
2021/03/25 11:18:26;;;;;;;;;;;1.90;91.40;;;;;;4995657;28;92668;-66
2021/03/25 11:20:52;;;;;;;;;;;1.90;91.40;;;;;;4994777;28;94580;-66
2021/03/25 11:23:22;;;;;;;;;;;2.00;91.40;;;;;;4993455;28;93307;-66
2021/03/25 11:25:53;;;;;;;;;;;1.90;91.40;;;;;;4994240;28;93340;-67
2021/03/25 11:28:18;;;;;;;;;;;2.00;91.30;;;;;;4994575;28;92255;-67
2021/03/25 11:30:49;;;;;;;;;;;2.00;91.30;;;;;;4995776;28;92195;-66
2021/03/25 11:33:22;;;;;;;;;;;2.00;91.30;;;;;;4996280;28;92740;-66
2021/03/25 11:35:48;;;;;;;;;;;2.00;91.30;;;;;;4997712;28;92365;-66
2021/03/25 11:38:22;;;;;;;;;;;2.00;91.30;;;;;;4993864;28;91448;-67
2021/03/25 11:40:48;;;;;;;;;;;2.10;91.30;;;;;;4995593;28;92273;-66
2021/03/25 11:43:16;;;;;;;;;;;2.10;91.30;;;;;;4996410;28;92358;-67
2021/03/25 11:45:44;;;;;;;;;;;2.10;91.30;;;;;;4993529;28;94245;-66
2021/03/25 11:48:19;;;;;;;;;;;2.10;91.30;;;;;;4997926;28;92203;-66
2021/03/25 11:50:49;;;;;;;;;;;2.10;91.40;;;;;;4994087;28;93740;-66
2021/03/25 11:53:35;;;;;;;;;;;2.10;91.40;;;;;;4994964;28;93075;-66
2021/03/25 11:56:01;;;;;;;;;;;2.20;91.40;;;;;;4995971;28;92203;-66
2021/03/25 11:58:27;;;;;;;;;;;2.20;91.40;;;;;;4999624;28;92442;-66
2021/03/25 12:01:20;;;;;;;;;;;2.20;91.40;;;;;;4996030;28;92212;-66
2021/03/25 12:03:46;;;;;;;;;;;2.30;91.30;;;;;;4995905;28;93003;-67
2021/03/25 12:06:19;;;;;;;;;;;2.30;91.30;;;;;;4995860;28;92608;-66
2021/03/25 12:08:45;;;;;;;;;;;2.30;91.30;;;;;;4994173;28;92238;-66
2021/03/25 12:11:11;;;;;;;;;;;2.30;91.40;;;;;;4993964;28;93158;-66
2021/03/25 12:13:37;;;;;;;;;;;2.30;91.40;;;;;;4993855;28;93310;-66
2021/03/25 12:16:04;;;;;;;;;;;2.40;91.30;;;;;;4995075;28;92237;-66
2021/03/25 12:18:32;;;;;;;;;;;2.40;91.30;;;;;;4997535;28;92524;-66
2021/03/25 12:20:59;;;;;;;;;;;2.40;91.20;;;;;;4992785;28;92245;-66
2021/03/25 12:23:27;;;;;;;;;;;2.40;91.20;;;;;;4995990;28;92948;-67
2021/03/25 12:25:55;;;;;;;;;;;2.50;91.20;;;;;;4996142;28;93329;-66
2021/03/25 12:28:22;;;;;;;;;;;2.50;91.20;;;;;;4994743;28;91457;-66
2021/03/25 12:30:48;;;;;;;;;;;2.50;91.20;;;;;;4994054;28;92176;-66
2021/03/25 12:33:24;;;;;;;;;;;2.50;91.20;;;;;;4994015;28;93288;-67
2021/03/25 12:35:50;;;;;;;;;;;2.50;91.20;;;;;;4994281;28;93202;-66
2021/03/25 12:38:16;;;;;;;;;;;2.50;91.30;;;;;;4996620;28;93833;-66
2021/03/25 12:40:42;;;;;;;;;;;2.50;91.30;;;;;;5004895;28;92221;-66
2021/03/25 12:43:10;;;;;;;;;;;2.50;91.30;;;;;;5002527;28;92366;-66
2021/03/25 12:45:40;;;;;;;;;;;2.60;91.30;;;;;;4999422;28;94832;-66
2021/03/25 12:48:07;;;;;;;;;;;2.60;91.30;;;;;;5001138;28;92166;-66
2021/03/25 12:50:33;;;;;;;;;;;2.60;91.30;;;;;;5001361;28;93770;-66
2021/03/25 12:52:58;;;;;;;;;;;2.60;91.60;;;;;;5002007;28;91428;-67
2021/03/25 12:55:24;;;;;;;;;;;2.60;91.20;;;;;;5001441;28;92218;-66
2021/03/25 12:57:51;;;;;;;;;;;2.70;91.20;;;;;;4999740;28;92494;-67
2021/03/25 13:00:22;;;;;;;;;;;2.70;91.20;;;;;;4999493;28;94032;-66
2021/03/25 13:02:48;;;;;;;;;;;2.70;91.20;;;;;;5006581;28;92232;-67
2021/03/25 13:05:14;;;;;;;;;;;2.70;91.20;;;;;;5000258;28;93306;-66
2021/03/25 13:07:39;;;;;;;;;;;2.70;91.10;;;;;;5001126;28;92546;-67
2021/03/25 13:10:05;;;;;;;;;;;2.70;91.00;;;;;;5003665;28;92206;-66
2021/03/25 13:12:31;;;;;;;;;;;2.80;91.00;;;;;;5001855;28;93061;-67
2021/03/25 13:14:56;;;;;;;;;;;2.80;91.00;;;;;;5002912;28;92248;-66
2021/03/25 13:17:22;;;;;;;;;;;2.80;90.90;;;;;;5002041;28;92979;-66
2021/03/25 13:19:47;;;;;;;;;;;2.80;91.00;;;;;;4997857;28;94961;-66
2021/03/25 13:22:13;;;;;;;;;;;2.80;91.00;;;;;;4999724;28;92194;-67
2021/03/25 13:24:39;;;;;;;;;;;2.90;91.10;;;;;;5002860;28;93259;-67
2021/03/25 13:27:04;;;;;;;;;;;2.80;91.10;;;;;;5000489;28;92231;-66
2021/03/25 13:29:30;;;;;;;;;;;2.90;91.00;;;;;;4999655;28;92212;-66
2021/03/25 13:31:56;;;;;;;;;;;2.90;91.00;;;;;;4998012;28;93089;-67
2021/03/25 13:34:21;;;;;;;;;;;3.00;90.90;;;;;;4999075;28;93266;-67
2021/03/25 13:36:47;;;;;;;;;;;3.00;91.00;;;;;;4999477;28;92193;-67
2021/03/25 13:39:12;;;;;;;;;;;3.00;90.90;;;;;;5000113;28;92564;-67
2021/03/25 13:41:38;;;;;;;;;;;3.00;91.00;;;;;;5002437;28;91509;-66
2021/03/25 13:44:03;;;;;;;;;;;3.00;90.90;;;;;;5003104;28;92211;-66
2021/03/25 13:46:29;;;;;;;;;;;3.00;90.90;;;;;;5003124;28;93819;-67
2021/03/25 13:48:56;;;;;;;;;;;3.10;90.90;;;;;;4997672;28;93118;-67
2021/03/25 13:51:21;;;;;;;;;;;3.00;91.00;;;;;;4999527;28;93143;-66
2021/03/25 13:53:47;;;;;;;;;;;3.00;91.10;;;;;;4996426;28;92894;-67
2021/03/25 13:56:13;;;;;;;;;;;3.10;91.00;;;;;;4995519;28;92277;-67
2021/03/25 13:58:38;;;;;;;;;;;3.10;91.00;;;;;;4996068;28;93066;-67
2021/03/25 14:01:04;;;;;;;;;;;3.10;91.00;;;;;;4996027;28;92216;-67
2021/03/25 14:03:29;;;;;;;;;;;3.10;91.00;;;;;;4995476;28;92347;-67
2021/03/25 14:05:55;;;;;;;;;;;3.10;91.00;;;;;;4995149;28;92475;-67
2021/03/25 14:08:21;;;;;;;;;;;3.10;91.00;;;;;;4998885;28;92909;-67
2021/03/25 14:10:46;;;;;;;;;;;3.10;91.10;;;;;;4994899;28;93132;-67
2021/03/25 14:13:13;;;;;;;;;;;3.10;91.40;;;;;;4995935;28;93174;-67
2021/03/25 14:15:42;;;;;;;;;;;3.10;91.10;;;;;;4995405;28;92884;-67
2021/03/25 14:18:08;;;;;;;;;;;3.20;91.10;;;;;;4997687;28;93100;-67
2021/03/25 14:20:34;;;;;;;;;;;3.20;91.10;;;;;;4998020;28;92221;-67
2021/03/25 14:22:59;;;;;;;;;;;3.20;91.10;;;;;;4997503;28;92464;-67
2021/03/25 14:25:27;;;;;;;;;;;3.20;91.20;;;;;;4996363;28;92777;-67
2021/03/25 14:27:53;;;;;;;;;;;3.20;91.20;;;;;;5002494;28;92187;-67
2021/03/25 14:30:20;;;;;;;;;;;3.20;91.30;;;;;;4998334;28;92554;-67
2021/03/25 14:32:45;;;;;;;;;;;3.20;91.30;;;;;;4997750;28;92190;-67
2021/03/25 14:35:11;;;;;;;;;;;3.20;91.40;;;;;;4998275;28;92515;-67
2021/03/25 14:37:36;;;;;;;;;;;3.20;91.40;;;;;;4997457;28;93290;-67
2021/03/25 14:40:04;;;;;;;;;;;3.20;91.40;;;;;;4999157;28;92187;-67
2021/03/25 14:42:29;;;;;;;;;;;3.20;91.50;;;;;;4995958;28;94098;-67
2021/03/25 14:44:55;;;;;;;;;;;3.20;91.50;;;;;;4994561;28;94463;-67
2021/03/25 14:47:20;;;;;;;;;;;3.20;91.60;;;;;;4994495;28;92246;-67